Time;durP1;ratioP1;P1;durP2;ratioP2;P2;SDS_P1;SDS_P2;PMS_P1;PMS_P2;Temp;Humidity;BMP_temperature;BMP_pressure;BME280_temperature;BME280_humidity;BME280_pressure;Samples;Min_cycle;Max_cycle;Signal;HPM_P1;HPM_P2
2024/02/02 00:02:24;;;;;;;0.50;0.50;;;;;;;7.51;43.18;93478.91;4826181;29;20048;-79
2024/02/02 00:04:50;;;;;;;0.70;0.70;;;;;;;7.47;43.47;93487.44;4835111;29;20057;-78
2024/02/02 00:07:16;;;;;;;0.70;0.70;;;;;;;7.50;43.26;93484.38;4840815;29;20166;-78
2024/02/02 00:09:41;;;;;;;0.50;0.50;;;;;;;7.44;43.69;93485.34;4836622;29;20047;-78
2024/02/02 00:12:10;;;;;;;0.40;0.40;;;;;;;7.44;43.30;93487.94;4840151;29;20042;-79
2024/02/02 00:14:39;;;;;;;0.70;0.60;;;;;;;7.42;43.65;93482.19;4839641;29;20041;-79
2024/02/02 00:17:05;;;;;;;0.43;0.43;;;;;;;7.46;42.88;93491.09;4823857;29;20117;-78
2024/02/02 00:19:31;;;;;;;0.40;0.40;;;;;;;7.46;43.50;93496.31;4830819;29;20528;-79
2024/02/02 00:21:57;;;;;;;0.50;0.50;;;;;;;7.40;43.29;93495.44;4830122;29;20062;-79
2024/02/02 00:24:22;;;;;;;0.57;0.57;;;;;;;7.42;42.91;93479.59;4840997;29;20136;-79
2024/02/02 00:26:48;;;;;;;0.60;0.50;;;;;;;7.45;43.01;93490.31;4823975;29;20037;-79
2024/02/02 00:29:14;;;;;;;0.40;0.40;;;;;;;7.42;42.78;93487.41;4824718;29;20090;-79
2024/02/02 00:31:40;;;;;;;0.50;0.50;;;;;;;7.35;43.34;93487.56;4840399;29;20037;-79
2024/02/02 00:34:07;;;;;;;0.50;0.50;;;;;;;7.28;43.96;93500.00;4839616;29;20048;-79
2024/02/02 00:36:32;;;;;;;0.50;0.50;;;;;;;7.21;44.16;93489.75;4820540;29;20026;-79
2024/02/02 00:38:58;;;;;;;0.60;0.60;;;;;;;7.17;44.43;93503.47;4834608;29;20104;-77
2024/02/02 00:41:24;;;;;;;0.47;0.47;;;;;;;7.13;44.17;93492.75;4811961;29;20094;-79
2024/02/02 00:43:50;;;;;;;0.60;0.60;;;;;;;7.15;44.30;93495.91;4840631;29;20034;-79
2024/02/02 00:46:16;;;;;;;0.40;0.40;;;;;;;7.18;44.27;93487.63;4816680;29;20452;-79
2024/02/02 00:48:41;;;;;;;0.50;0.50;;;;;;;7.19;43.95;93485.81;4837898;29;20478;-78
2024/02/02 00:51:07;;;;;;;0.50;0.50;;;;;;;7.20;44.04;93480.34;4838676;29;20053;-80
2024/02/02 00:53:33;;;;;;;0.47;0.47;;;;;;;7.20;43.91;93482.16;4837497;29;20044;-79
2024/02/02 00:55:58;;;;;;;0.70;0.70;;;;;;;7.29;43.80;93478.91;4837001;29;20050;-78
2024/02/02 00:58:24;;;;;;;0.50;0.50;;;;;;;7.33;44.09;93486.25;4840313;29;20066;-79
2024/02/02 01:00:49;;;;;;;0.40;0.40;;;;;;;7.43;43.64;93471.53;4840097;29;20112;-78
2024/02/02 01:03:15;;;;;;;0.43;0.43;;;;;;;7.46;43.39;93480.69;4840697;29;20044;-79
2024/02/02 01:05:41;;;;;;;0.52;0.52;;;;;;;7.50;43.03;93481.78;4840694;29;20042;-79
2024/02/02 01:08:06;;;;;;;0.40;0.40;;;;;;;7.47;42.99;93488.22;4832542;29;20050;-78
2024/02/02 01:10:32;;;;;;;0.40;0.40;;;;;;;7.53;43.19;93483.88;4820230;29;20045;-79
2024/02/02 01:12:57;;;;;;;0.47;0.47;;;;;;;7.55;42.80;93489.66;4840847;29;20191;-77
2024/02/02 01:15:23;;;;;;;0.50;0.50;;;;;;;7.49;43.14;93486.19;4822559;29;20079;-79
2024/02/02 01:17:49;;;;;;;0.40;0.40;;;;;;;7.45;43.07;93492.13;4838442;29;20186;-78
2024/02/02 01:20:15;;;;;;;0.47;0.47;;;;;;;7.50;43.46;93494.81;4834655;29;20033;-78
2024/02/02 01:22:41;;;;;;;0.50;0.50;;;;;;;7.66;42.79;93485.34;4839071;29;20030;-79
2024/02/02 01:25:09;;;;;;;0.40;0.40;;;;;;;7.65;42.89;93489.75;4832626;29;20041;-80
2024/02/02 01:27:36;;;;;;;1.55;0.70;;;;;;;7.64;42.90;93493.41;4831156;29;20072;-80
2024/02/02 01:30:02;;;;;;;0.57;0.57;;;;;;;7.61;42.84;93486.06;4839424;29;20048;-76
2024/02/02 01:32:28;;;;;;;0.40;0.40;;;;;;;7.60;42.42;93494.13;4834565;29;20490;-79
2024/02/02 01:34:53;;;;;;;0.50;0.50;;;;;;;7.51;42.58;93489.31;4841265;29;20048;-79
2024/02/02 01:37:19;;;;;;;0.40;0.40;;;;;;;7.47;43.31;93498.66;4832372;29;20110;-78
2024/02/02 01:39:45;;;;;;;0.40;0.40;;;;;;;7.42;43.40;93498.59;4839049;29;20170;-79
2024/02/02 01:42:10;;;;;;;0.50;0.50;;;;;;;7.35;43.60;93497.22;4838413;29;20038;-78
2024/02/02 01:44:37;;;;;;;0.50;0.43;;;;;;;7.23;44.26;93498.09;4822010;29;20574;-79
2024/02/02 01:47:03;;;;;;;0.60;0.60;;;;;;;7.17;44.26;93499.06;4838795;29;20054;-77
2024/02/02 01:49:29;;;;;;;0.30;0.30;;;;;;;7.11;44.41;93502.59;4825684;29;20038;-78
2024/02/02 01:51:55;;;;;;;0.68;0.68;;;;;;;7.11;43.96;93502.59;4839448;29;20129;-79
2024/02/02 01:54:21;;;;;;;0.40;0.40;;;;;;;7.05;44.71;93496.56;4836352;29;20049;-79
2024/02/02 01:56:47;;;;;;;0.52;0.52;;;;;;;7.01;44.71;93502.47;4840159;29;20141;-79
2024/02/02 01:59:13;;;;;;;0.43;0.43;;;;;;;6.99;44.98;93494.91;4834149;29;20037;-79
2024/02/02 02:01:41;;;;;;;0.50;0.50;;;;;;;6.96;44.90;93491.97;4830734;29;20053;-78
2024/02/02 02:04:07;;;;;;;0.52;0.52;;;;;;;6.97;44.81;93493.56;4836221;29;20045;-79
2024/02/02 02:06:33;;;;;;;0.40;0.40;;;;;;;6.92;45.62;93485.69;4839702;29;20034;-80
2024/02/02 02:08:59;;;;;;;0.70;0.50;;;;;;;6.86;45.64;93488.19;4839870;29;20042;-79
2024/02/02 02:11:24;;;;;;;0.45;0.45;;;;;;;6.84;45.31;93486.88;4815500;29;20086;-79
2024/02/02 02:13:50;;;;;;;0.50;0.50;;;;;;;6.84;45.08;93479.84;4838297;29;20117;-79
2024/02/02 02:16:16;;;;;;;0.50;0.50;;;;;;;6.83;45.09;93483.47;4841910;29;20038;-79
2024/02/02 02:18:41;;;;;;;0.47;0.47;;;;;;;6.86;45.21;93477.00;4839457;29;20042;-77
2024/02/02 02:21:23;;;;;;;0.52;0.52;;;;;;;6.82;45.50;93479.31;4826735;29;20046;-79
2024/02/02 02:23:49;;;;;;;0.60;0.60;;;;;;;6.82;44.76;93476.72;4828997;29;20128;-80
2024/02/02 02:26:16;;;;;;;0.52;0.52;;;;;;;6.88;44.37;93480.94;4850341;29;20128;-79
2024/02/02 02:28:41;;;;;;;0.50;0.50;;;;;;;6.92;44.36;93485.69;4842803;29;20038;-79
2024/02/02 02:31:14;;;;;;;0.40;0.40;;;;;;;6.90;44.14;93482.53;4842796;29;20050;-79
2024/02/02 02:33:41;;;;;;;0.50;0.50;;;;;;;6.91;44.23;93478.91;4838189;29;20042;-80
2024/02/02 02:36:08;;;;;;;0.40;0.40;;;;;;;6.91;43.83;93484.09;4841296;29;20030;-79
2024/02/02 02:38:34;;;;;;;0.52;0.50;;;;;;;6.85;44.35;93481.44;4842775;29;20069;-79
2024/02/02 02:41:00;;;;;;;0.50;0.50;;;;;;;6.81;44.46;93479.53;4828827;29;20503;-80
2024/02/02 02:43:27;;;;;;;0.50;0.50;;;;;;;6.78;44.72;93470.41;4838281;29;20033;-79
2024/02/02 02:45:54;;;;;;;0.50;0.50;;;;;;;6.71;45.08;93474.19;4842127;29;20108;-79
2024/02/02 02:48:20;;;;;;;0.40;0.40;;;;;;;6.72;45.01;93476.56;4835156;29;20049;-79
2024/02/02 02:50:46;;;;;;;0.50;0.50;;;;;;;6.74;44.71;93469.31;4842788;29;20034;-79
2024/02/02 02:53:11;;;;;;;0.40;0.40;;;;;;;6.71;45.15;93469.78;4841555;29;20050;-78
2024/02/02 02:55:37;;;;;;;0.50;0.50;;;;;;;6.71;44.66;93472.38;4836552;29;20037;-79
2024/02/02 02:58:03;;;;;;;0.50;0.50;;;;;;;6.71;44.75;93469.78;4839572;29;20037;-79
2024/02/02 03:00:31;;;;;;;0.40;0.40;;;;;;;6.71;44.82;93475.00;4842786;29;20098;-79
2024/02/02 03:03:00;;;;;;;0.47;0.47;;;;;;;6.75;44.56;93464.88;4836557;29;20045;-78
2024/02/02 03:05:28;;;;;;;0.50;0.50;;;;;;;6.83;44.17;93467.88;4837645;29;20053;-79
2024/02/02 03:07:53;;;;;;;0.60;0.60;;;;;;;6.84;43.75;93473.84;4819102;29;20046;-77
2024/02/02 03:10:25;;;;;;;0.43;0.43;;;;;;;6.77;43.97;93466.22;4833240;29;20084;-78
2024/02/02 03:12:54;;;;;;;0.50;0.50;;;;;;;6.76;43.93;93469.84;4839865;29;20066;-79
2024/02/02 03:15:21;;;;;;;0.40;0.40;;;;;;;6.71;43.59;93468.97;4842604;29;20558;-79
2024/02/02 03:17:49;;;;;;;0.40;0.40;;;;;;;6.77;43.53;93484.44;4842594;29;20038;-78
2024/02/02 03:20:16;;;;;;;0.30;0.30;;;;;;;6.74;43.66;93478.94;4833805;29;20046;-79
2024/02/02 03:22:41;;;;;;;0.40;0.40;;;;;;;6.72;44.00;93488.78;4836648;29;20395;-78
2024/02/02 03:25:07;;;;;;;0.32;0.32;;;;;;;6.87;42.67;93483.81;4832550;29;20026;-80
2024/02/02 03:27:34;;;;;;;0.50;0.50;;;;;;;6.81;42.97;93485.53;4842440;29;20198;-78
2024/02/02 03:30:00;;;;;;;0.50;0.50;;;;;;;6.78;42.87;93478.22;4818735;29;20523;-78
2024/02/02 03:32:25;;;;;;;0.47;0.47;;;;;;;6.81;43.23;93469.13;4841944;29;20052;-78
2024/02/02 03:34:51;;;;;;;0.43;0.43;;;;;;;6.70;43.30;93457.00;4836784;29;20098;-79
2024/02/02 03:37:18;;;;;;;0.40;0.40;;;;;;;6.77;42.13;93457.63;4830348;29;20033;-78
2024/02/02 03:39:45;;;;;;;0.40;0.40;;;;;;;6.81;41.26;93463.94;4841946;29;20049;-80
2024/02/02 03:42:12;;;;;;;0.55;0.55;;;;;;;6.79;41.04;93460.78;4824443;29;20033;-79
2024/02/02 03:44:37;;;;;;;0.50;0.50;;;;;;;6.88;40.38;93470.53;4826480;29;20053;-76
2024/02/02 03:47:03;;;;;;;0.50;0.50;;;;;;;6.95;39.85;93448.75;4827979;29;20464;-79
2024/02/02 03:49:29;;;;;;;1.27;0.45;;;;;;;7.11;39.01;93460.94;4826130;29;20510;-79
2024/02/02 03:51:54;;;;;;;0.47;0.47;;;;;;;7.13;38.87;93458.13;4842011;29;20498;-79
2024/02/02 03:54:20;;;;;;;0.50;0.50;;;;;;;7.17;38.33;93457.41;4831860;29;20431;-79
2024/02/02 03:56:46;;;;;;;0.40;0.40;;;;;;;7.24;37.75;93450.19;4838806;29;20397;-79
2024/02/02 03:59:12;;;;;;;0.40;0.40;;;;;;;7.27;37.21;93454.94;4839246;29;20085;-79
2024/02/02 04:01:37;;;;;;;0.63;0.50;;;;;;;7.40;36.92;93461.56;4835491;29;20042;-78
2024/02/02 04:04:04;;;;;;;0.60;0.60;;;;;;;7.47;36.38;93467.38;4836643;29;20069;-77
2024/02/02 04:06:29;;;;;;;0.43;0.43;;;;;;;7.48;36.17;93463.00;4840409;29;20567;-77
2024/02/02 04:08:55;;;;;;;0.68;0.68;;;;;;;7.43;36.72;93465.50;4821400;29;20070;-78
2024/02/02 04:11:20;;;;;;;0.40;0.40;;;;;;;7.35;36.58;93453.72;4835791;29;20054;-79
2024/02/02 04:13:46;;;;;;;0.40;0.40;;;;;;;7.51;36.35;93465.88;4840565;29;20085;-80
2024/02/02 04:16:12;;;;;;;0.40;0.40;;;;;;;7.64;35.79;93472.56;4840616;29;20030;-76
2024/02/02 04:18:37;;;;;;;0.50;0.50;;;;;;;7.68;35.13;93475.47;4835694;29;20117;-79
2024/02/02 04:21:03;;;;;;;0.50;0.50;;;;;;;7.70;35.27;93468.97;4836970;29;20056;-80
2024/02/02 04:23:29;;;;;;;0.40;0.40;;;;;;;7.68;35.85;93467.66;4820709;29;20026;-79
2024/02/02 04:25:54;;;;;;;0.50;0.50;;;;;;;7.68;35.78;93463.22;4838934;29;20162;-78
2024/02/02 04:28:20;;;;;;;0.50;0.50;;;;;;;7.59;35.89;93462.06;4840448;29;20038;-80
2024/02/02 04:30:46;;;;;;;0.40;0.40;;;;;;;7.55;35.19;93460.97;4840816;29;20104;-78
2024/02/02 04:33:11;;;;;;;0.30;0.30;;;;;;;7.57;35.29;93473.78;4840765;29;20567;-78
2024/02/02 04:35:38;;;;;;;0.45;0.45;;;;;;;7.51;35.39;93458.06;4837935;29;20409;-80
2024/02/02 04:38:04;;;;;;;0.40;0.40;;;;;;;7.53;35.58;93455.22;4833216;29;20081;-78
2024/02/02 04:40:30;;;;;;;0.50;0.50;;;;;;;7.55;35.78;93457.59;4838298;29;20046;-80
2024/02/02 04:42:57;;;;;;;0.50;0.50;;;;;;;7.46;36.29;93450.19;4840795;29;20565;-79
2024/02/02 04:45:23;;;;;;;0.40;0.40;;;;;;;7.43;36.87;93460.31;4832197;29;20050;-79
2024/02/02 04:47:48;;;;;;;0.50;0.50;;;;;;;7.44;35.85;93462.69;4832387;29;20469;-79
2024/02/02 04:50:15;;;;;;;0.40;0.40;;;;;;;7.43;36.13;93461.13;4831024;29;20101;-79
2024/02/02 04:52:40;;;;;;;0.50;0.50;;;;;;;7.38;36.14;93461.03;4837610;29;20046;-80
2024/02/02 04:55:06;;;;;;;0.50;0.50;;;;;;;7.39;35.79;93460.03;4838513;29;20050;-79
2024/02/02 04:57:32;;;;;;;0.60;0.57;;;;;;;7.50;35.60;93450.50;4840521;29;20406;-79
2024/02/02 04:59:57;;;;;;;0.47;0.47;;;;;;;7.57;35.37;93451.09;4833615;29;20080;-78
2024/02/02 05:02:24;;;;;;;0.47;0.47;;;;;;;7.65;34.73;93437.63;4831056;29;20083;-79
2024/02/02 05:04:50;;;;;;;0.68;0.68;;;;;;;7.67;34.56;93438.19;4839687;29;20421;-79
2024/02/02 05:07:16;;;;;;;0.55;0.52;;;;;;;7.69;34.48;93427.53;4830531;29;20321;-79
2024/02/02 05:09:42;;;;;;;0.40;0.40;;;;;;;7.68;34.56;93439.00;4838703;29;20034;-79
2024/02/02 05:12:07;;;;;;;0.43;0.43;;;;;;;7.67;34.37;93446.00;4840718;29;20499;-78
2024/02/02 05:14:33;;;;;;;0.30;0.30;;;;;;;7.60;34.28;93434.19;4839786;29;20042;-78
2024/02/02 05:16:59;;;;;;;0.60;0.60;;;;;;;7.58;34.65;93434.44;4808766;29;20045;-78
2024/02/02 05:19:24;;;;;;;0.50;0.50;;;;;;;7.63;34.26;93447.53;4840478;29;20503;-78
2024/02/02 05:21:50;;;;;;;0.40;0.40;;;;;;;7.61;34.23;93451.41;4839854;29;20116;-79
2024/02/02 05:24:16;;;;;;;0.50;0.50;;;;;;;7.63;34.37;93460.56;4840249;29;20572;-79
2024/02/02 05:26:41;;;;;;;0.40;0.40;;;;;;;7.72;33.98;93453.06;4837252;29;20039;-78
2024/02/02 05:29:07;;;;;;;1.13;0.60;;;;;;;7.68;34.32;93465.81;4820756;29;20528;-79
2024/02/02 05:31:32;;;;;;;1.70;0.60;;;;;;;7.65;34.02;93466.28;4836725;29;20038;-80
2024/02/02 05:33:58;;;;;;;0.40;0.40;;;;;;;7.49;34.45;93460.13;4816573;29;20068;-79
2024/02/02 05:36:24;;;;;;;0.30;0.30;;;;;;;7.45;34.90;93463.47;4838954;29;20549;-80
2024/02/02 05:38:49;;;;;;;0.32;0.32;;;;;;;7.39;34.69;93472.25;4838306;29;20041;-79
2024/02/02 05:41:15;;;;;;;0.50;0.50;;;;;;;7.45;33.84;93473.88;4840725;29;20049;-79
2024/02/02 05:43:41;;;;;;;0.47;0.47;;;;;;;7.49;33.98;93467.16;4839439;29;20038;-80
2024/02/02 05:46:07;;;;;;;0.77;0.73;;;;;;;7.34;33.93;93461.75;4838948;29;20046;-78
2024/02/02 05:48:33;;;;;;;0.40;0.40;;;;;;;7.44;33.93;93474.91;4838539;29;20038;-78
2024/02/02 05:50:59;;;;;;;0.47;0.47;;;;;;;7.41;34.19;93478.03;4837696;29;20053;-78
2024/02/02 05:53:24;;;;;;;0.30;0.30;;;;;;;7.38;34.01;93474.06;4829913;29;20046;-80
2024/02/02 05:55:50;;;;;;;0.50;0.50;;;;;;;7.35;34.17;93489.41;4839549;29;20074;-78
2024/02/02 05:58:16;;;;;;;0.32;0.32;;;;;;;7.38;33.94;93494.13;4830087;29;20045;-79
2024/02/02 06:00:41;;;;;;;0.50;0.50;;;;;;;7.39;33.83;93495.72;4821581;29;20038;-79
2024/02/02 06:03:07;;;;;;;0.50;0.50;;;;;;;7.33;34.28;93492.22;4836647;29;20038;-79
2024/02/02 06:05:33;;;;;;;0.50;0.50;;;;;;;7.26;34.47;93502.03;4830590;29;20046;-81
2024/02/02 06:08:02;;;;;;;0.63;0.63;;;;;;;7.17;34.90;93493.84;4836467;29;20511;-77
2024/02/02 06:10:28;;;;;;;0.55;0.55;;;;;;;7.09;35.12;93502.88;4833486;29;20050;-78
2024/02/02 06:12:54;;;;;;;0.77;0.50;;;;;;;7.08;34.71;93496.06;4839647;29;20057;-79
2024/02/02 06:15:20;;;;;;;0.50;0.50;;;;;;;7.12;34.37;93496.38;4839650;29;20046;-78
2024/02/02 06:17:45;;;;;;;0.30;0.30;;;;;;;7.13;34.52;93499.78;4839762;29;20042;-78
2024/02/02 06:20:12;;;;;;;2.40;0.50;;;;;;;7.12;34.33;93493.00;4838602;29;20030;-80
2024/02/02 06:22:38;;;;;;;0.55;0.55;;;;;;;7.09;34.22;93496.84;4838173;29;20077;-79
2024/02/02 06:25:05;;;;;;;0.47;0.47;;;;;;;7.03;34.64;93503.03;4829663;29;20096;-76
2024/02/02 06:27:31;;;;;;;0.30;0.30;;;;;;;6.97;34.90;93504.75;4836909;29;20435;-80
2024/02/02 06:29:58;;;;;;;0.40;0.40;;;;;;;6.90;34.93;93498.16;4839063;29;20387;-79
2024/02/02 06:32:24;;;;;;;0.45;0.45;;;;;;;6.84;34.94;93499.88;4808459;29;20049;-78
2024/02/02 06:34:55;;;;;;;0.50;0.50;;;;;;;6.83;34.72;93508.72;4822945;29;20049;-78
2024/02/02 06:37:23;;;;;;;0.50;0.50;;;;;;;6.86;35.13;93511.63;4840092;29;20418;-79
2024/02/02 06:39:51;;;;;;;0.85;0.70;;;;;;;7.05;35.16;93521.81;4832921;29;20034;-82
2024/02/02 06:42:18;;;;;;;0.50;0.50;;;;;;;6.99;35.78;93520.16;4836324;29;20052;-82
2024/02/02 06:44:44;;;;;;;0.45;0.45;;;;;;;6.98;35.76;93528.97;4841053;29;20044;-82
2024/02/02 06:47:09;;;;;;;0.40;0.40;;;;;;;6.87;36.01;93523.63;4840145;29;20534;-80
2024/02/02 06:49:35;;;;;;;0.60;0.60;;;;;;;6.80;35.79;93517.00;4839885;29;20041;-82
2024/02/02 06:52:01;;;;;;;0.40;0.40;;;;;;;6.72;35.53;93528.59;4824877;29;20041;-79
2024/02/02 06:54:28;;;;;;;0.40;0.40;;;;;;;6.68;35.73;93530.88;4824783;29;20077;-82
2024/02/02 06:56:54;;;;;;;0.52;0.52;;;;;;;6.64;36.10;93531.56;4834614;29;20034;-82
2024/02/02 06:59:21;;;;;;;0.50;0.50;;;;;;;6.54;36.04;93526.22;4840904;29;20406;-81
2024/02/02 07:01:47;;;;;;;0.47;0.47;;;;;;;6.56;36.13;93537.19;4847394;29;20045;-81
2024/02/02 07:04:14;;;;;;;0.60;0.60;;;;;;;7.18;36.46;93554.53;4833487;29;20086;-81
2024/02/02 07:06:40;;;;;;;0.60;0.60;;;;;;;8.27;35.02;93555.63;4813194;29;20037;-81
2024/02/02 07:09:18;;;;;;;0.60;0.60;;;;;;;9.52;34.55;93559.78;4834741;29;20037;-81
2024/02/02 07:11:58;;;;;;;0.50;0.50;;;;;;;10.52;33.07;93566.75;4820232;29;20069;-80
2024/02/02 07:14:41;;;;;;;0.60;0.60;;;;;;;11.49;31.64;93563.38;4840453;29;20048;-80
2024/02/02 07:17:20;;;;;;;0.93;0.50;;;;;;;11.69;31.44;93567.81;4842639;29;20093;-82
2024/02/02 07:19:46;;;;;;;0.77;0.70;;;;;;;11.01;31.60;93563.66;4837693;29;20045;-82
2024/02/02 07:22:34;;;;;;;0.60;0.60;;;;;;;10.76;31.97;93564.41;4843358;29;20030;-82
2024/02/02 07:25:00;;;;;;;0.50;0.50;;;;;;;10.71;32.30;93557.34;4843751;29;20491;-82
2024/02/02 07:27:54;;;;;;;0.98;0.70;;;;;;;10.95;32.18;93569.97;4819225;29;20050;-82
2024/02/02 07:30:38;;;;;;;5.47;2.60;;;;;;;11.48;32.25;93564.41;4842524;29;20609;-81
2024/02/02 07:33:34;;;;;;;5.25;2.40;;;;;;;11.49;32.25;93560.75;4843105;29;20099;-80
2024/02/02 07:36:00;;;;;;;1.08;0.80;;;;;;;11.20;32.44;93566.53;4841488;29;20046;-82
2024/02/02 07:38:53;;;;;;;2.40;1.45;;;;;;;10.90;32.74;93565.50;4834979;29;20206;-80
2024/02/02 07:41:24;;;;;;;2.53;0.52;;;;;;;10.40;33.80;93566.97;4834175;29;20041;-81
2024/02/02 07:43:59;;;;;;;0.50;0.50;;;;;;;10.06;34.26;93569.97;4829174;29;20034;-82
2024/02/02 07:46:25;;;;;;;1.73;0.75;;;;;;;9.75;34.85;93571.69;4833135;29;20538;-82
2024/02/02 07:48:52;;;;;;;2.67;0.73;;;;;;;9.84;34.74;93579.81;4822960;29;20022;-81
2024/02/02 07:51:18;;;;;;;0.80;0.80;;;;;;;9.69;33.78;93589.16;4842897;29;20529;-82
2024/02/02 07:53:45;;;;;;;0.50;0.50;;;;;;;9.63;33.73;93584.94;4841895;29;20094;-82
2024/02/02 07:56:12;;;;;;;1.15;0.70;;;;;;;9.65;34.87;93589.94;4842403;29;20102;-82
2024/02/02 07:58:40;;;;;;;1.05;0.80;;;;;;;10.95;34.15;93594.31;4838923;29;20057;-82
2024/02/02 08:01:07;;;;;;;1.48;0.95;;;;;;;12.94;31.56;93584.31;4832651;29;20302;-83
2024/02/02 08:03:34;;;;;;;0.60;0.60;;;;;;;14.56;29.43;93584.88;4837007;29;20190;-82
2024/02/02 08:05:59;;;;;;;0.85;0.70;;;;;;;15.40;28.61;93578.91;4819816;29;20044;-83
2024/02/02 08:08:25;;;;;;;0.73;0.70;;;;;;;16.66;26.85;93581.34;4832916;29;20122;-83
2024/02/02 08:10:50;;;;;;;1.05;0.63;;;;;;;17.21;26.25;93578.56;4835332;29;20537;-84
2024/02/02 08:13:18;;;;;;;0.50;0.50;;;;;;;18.05;25.53;93574.38;4826562;29;20038;-84
2024/02/02 08:15:44;;;;;;;0.88;0.60;;;;;;;18.35;24.58;93572.00;4825665;29;20312;-81
2024/02/02 08:18:11;;;;;;;0.50;0.50;;;;;;;18.83;24.77;93573.06;4794287;29;20064;-83
2024/02/02 08:20:37;;;;;;;0.60;0.60;;;;;;;19.63;23.10;93572.69;4822386;29;20076;-83
2024/02/02 08:23:04;;;;;;;0.60;0.60;;;;;;;20.07;22.62;93573.38;4831797;29;20049;-83
2024/02/02 08:25:30;;;;;;;0.40;0.40;;;;;;;20.23;22.24;93573.63;4827403;29;20060;-82
2024/02/02 08:27:56;;;;;;;0.43;0.43;;;;;;;20.47;21.41;93560.53;4826647;29;20046;-81
2024/02/02 08:30:25;;;;;;;0.43;0.43;;;;;;;20.67;21.27;93571.53;4817919;29;20046;-83
2024/02/02 08:32:51;;;;;;;0.50;0.50;;;;;;;21.36;20.39;93576.34;4823451;29;20038;-82
2024/02/02 08:35:21;;;;;;;0.30;0.30;;;;;;;23.10;17.60;93576.22;4821544;29;20042;-83
2024/02/02 08:37:58;;;;;;;0.50;0.50;;;;;;;20.58;18.94;93576.94;4843564;29;20042;-82
2024/02/02 08:40:38;;;;;;;1.27;0.90;;;;;;;20.44;19.32;93579.78;4843756;29;20124;-83
2024/02/02 08:43:08;;;;;;;0.30;0.30;;;;;;;19.73;18.75;93585.69;4828487;29;20187;-83
2024/02/02 08:45:43;;;;;;;0.65;0.50;;;;;;;17.81;21.98;93584.53;4819437;29;20068;-83
2024/02/02 08:48:32;;;;;;;0.30;0.30;;;;;;;16.59;22.27;93594.94;4840901;29;20037;-84
2024/02/02 08:50:58;;;;;;;0.35;0.35;;;;;;;16.08;23.07;93593.34;4832005;29;20074;-82
2024/02/02 08:53:25;;;;;;;1.27;0.43;;;;;;;16.09;23.98;93596.75;4823973;29;20133;-83
2024/02/02 08:55:51;;;;;;;0.40;0.40;;;;;;;16.42;21.59;93594.78;4836054;29;20044;-83
2024/02/02 08:58:27;;;;;;;1.67;0.93;;;;;;;16.98;23.48;93600.81;4835385;29;20038;-82
2024/02/02 09:00:53;;;;;;;1.90;0.68;;;;;;;16.23;24.21;93594.88;4835547;29;20041;-83
2024/02/02 09:03:25;;;;;;;1.90;0.47;;;;;;;15.52;26.26;93584.50;4827036;29;20432;-83
2024/02/02 09:05:58;;;;;;;3.20;0.70;;;;;;;15.05;27.24;93583.66;4830457;29;20116;-83
2024/02/02 09:08:34;;;;;;;0.40;0.40;;;;;;;15.06;28.16;93577.31;4835934;29;20042;-83
2024/02/02 09:10:59;;;;;;;0.73;0.65;;;;;;;15.98;27.46;93583.72;4839554;29;20844;-83
2024/02/02 09:13:28;;;;;;;0.45;0.45;;;;;;;16.76;22.13;93573.19;4832139;29;20041;-84
2024/02/02 09:15:56;;;;;;;1.27;0.70;;;;;;;16.95;24.40;93574.94;4837913;29;20048;-83
2024/02/02 09:18:33;;;;;;;2.42;1.40;;;;;;;16.52;25.48;93576.06;4842832;29;20049;-83
2024/02/02 09:21:00;;;;;;;1.60;0.90;;;;;;;15.97;26.09;93584.03;4827772;29;20038;-81
2024/02/02 09:23:30;;;;;;;1.02;0.75;;;;;;;15.28;27.52;93589.13;4841792;29;20549;-82
2024/02/02 09:25:56;;;;;;;1.00;0.82;;;;;;;14.87;27.94;93589.75;4840327;29;20074;-83
2024/02/02 09:28:25;;;;;;;1.08;0.80;;;;;;;14.92;28.12;93590.44;4839050;29;20042;-82
2024/02/02 09:31:07;;;;;;;1.52;0.90;;;;;;;14.85;29.22;93597.16;4831509;29;20101;-80
2024/02/02 09:33:47;;;;;;;1.02;0.85;;;;;;;14.74;29.13;93607.03;4834571;29;20085;-79
2024/02/02 09:36:14;;;;;;;1.65;1.00;;;;;;;14.92;28.93;93600.97;4820846;29;20073;-79
2024/02/02 09:38:40;;;;;;;0.55;0.55;;;;;;;15.40;27.60;93605.28;4836981;29;20092;-79
2024/02/02 09:41:15;;;;;;;1.40;0.80;;;;;;;15.43;27.59;93607.34;4837815;29;20066;-82
2024/02/02 09:44:32;;;;;;;0.70;0.70;;;;;;;14.78;26.62;93611.47;4838380;29;20029;-80
2024/02/02 09:47:09;;;;;;;0.50;0.50;;;;;;;14.44;26.07;93619.50;4832402;29;20038;-80
2024/02/02 09:49:51;;;;;;;1.20;0.77;;;;;;;14.36;28.09;93625.41;4824339;29;20049;-82
2024/02/02 09:52:32;;;;;;;1.05;0.77;;;;;;;13.99;28.57;93626.84;4832797;29;20050;-78
2024/02/02 09:55:35;;;;;;;1.23;0.80;;;;;;;14.09;28.29;93624.09;4832015;29;20062;-81
2024/02/02 09:58:17;;;;;;;;;;;;;;;13.87;28.93;93624.59;4828358;29;20034;-78
2024/02/02 10:01:02;;;;;;;0.97;0.70;;;;;;;13.91;28.65;93640.63;4833339;29;19916;-80
2024/02/02 10:03:51;;;;;;;0.93;0.75;;;;;;;13.88;27.77;93634.06;4813575;29;20319;-78
2024/02/02 10:06:43;;;;;;;0.68;0.60;;;;;;;14.01;27.73;93631.84;4831057;29;20041;-80
2024/02/02 10:09:27;;;;;;;0.88;0.82;;;;;;;13.94;28.97;93629.56;4816109;29;20034;-81
2024/02/02 10:11:52;;;;;;;0.60;0.60;;;;;;;14.25;27.64;93632.66;4833618;29;20045;-80
2024/02/02 10:14:53;;;;;;;0.65;0.60;;;;;;;14.36;26.92;93623.56;4835020;29;20145;-82
2024/02/02 10:17:41;;;;;;;1.15;0.80;;;;;;;14.21;27.63;93626.38;4816247;29;20049;-78
2024/02/02 10:20:22;;;;;;;1.40;0.90;;;;;;;14.44;28.04;93624.00;4831512;29;20493;-81
2024/02/02 10:23:23;;;;;;;1.23;0.80;;;;;;;14.76;26.55;93626.78;4836582;29;20022;-80
2024/02/02 10:25:56;;;;;;;1.00;0.90;;;;;;;14.56;27.89;93613.84;4830809;29;20149;-79
2024/02/02 10:28:35;;;;;;;0.70;0.70;;;;;;;14.93;27.73;93620.25;4839439;29;20034;-80
2024/02/02 10:31:10;;;;;;;0.68;0.68;;;;;;;15.51;26.68;93625.16;4835100;29;20046;-79
2024/02/02 10:33:36;;;;;;;2.25;0.77;;;;;;;15.67;24.76;93620.44;4835140;29;20022;-79
2024/02/02 10:36:17;;;;;;;3.17;1.00;;;;;;;15.81;26.42;93621.28;4839140;29;20044;-80
2024/02/02 10:39:03;;;;;;;1.33;0.68;;;;;;;16.15;25.85;93619.34;4832768;29;20030;-80
2024/02/02 10:42:22;;;;;;;0.75;0.70;;;;;;;16.37;24.50;93613.38;4838136;29;20042;-82
2024/02/02 10:45:25;;;;;;;1.48;0.70;;;;;;;16.84;23.62;93612.19;4761381;30;20042;-79
2024/02/02 10:48:14;;;;;;;1.33;0.77;;;;;;;16.73;23.65;93607.38;4836921;29;20038;-81
2024/02/02 10:50:58;;;;;;;1.88;1.00;;;;;;;16.79;25.67;93608.84;4837563;29;20399;-81
2024/02/02 10:53:33;;;;;;;1.27;0.80;;;;;;;16.65;24.29;93603.56;4824309;29;20060;-80
2024/02/02 10:56:17;;;;;;;0.93;0.70;;;;;;;16.84;22.93;93606.09;4821807;29;20443;-80
2024/02/02 10:59:27;;;;;;;2.92;1.33;;;;;;;17.12;23.22;93598.88;4840170;29;20057;-79
2024/02/02 11:02:05;;;;;;;3.13;1.10;;;;;;;16.99;24.33;93591.78;4837351;29;20497;-79
2024/02/02 11:04:46;;;;;;;1.50;0.80;;;;;;;16.67;24.36;93590.84;4833209;29;20045;-83
2024/02/02 11:07:19;;;;;;;1.50;1.00;;;;;;;16.75;24.72;93587.50;4832912;29;20442;-79
2024/02/02 11:09:54;;;;;;;1.23;0.90;;;;;;;16.37;24.65;93595.69;4839044;29;20038;-79
2024/02/02 11:12:32;;;;;;;2.85;1.38;;;;;;;16.43;25.64;93585.78;4833231;29;20430;-81
2024/02/02 11:15:34;;;;;;;1.70;0.90;;;;;;;16.71;25.10;93586.53;4838753;29;20456;-81
2024/02/02 11:18:34;;;;;;;1.13;0.88;;;;;;;16.76;23.43;93573.19;4837636;29;20092;-81
2024/02/02 11:21:00;;;;;;;2.92;1.73;;;;;;;16.30;25.45;93574.16;4837755;29;20034;-80
2024/02/02 11:23:38;;;;;;;2.35;0.98;;;;;;;16.14;27.58;93572.88;4839072;29;20113;-80
2024/02/02 11:26:28;;;;;;;2.67;1.35;;;;;;;16.10;27.20;93577.97;4838250;29;20068;-81
2024/02/02 11:29:40;;;;;;;1.88;1.08;;;;;;;16.11;25.65;93568.97;4834076;29;20121;-81
2024/02/02 11:32:12;;;;;;;1.63;1.00;;;;;;;16.37;26.79;93577.19;4759012;30;20040;-79
2024/02/02 11:34:49;;;;;;;1.98;1.13;;;;;;;16.61;26.86;93565.59;4763953;30;20128;-82
2024/02/02 11:37:17;;;;;;;0.60;0.60;;;;;;;16.75;23.51;93570.84;4811587;29;20085;-81
2024/02/02 11:39:45;;;;;;;2.03;0.85;;;;;;;16.75;24.96;93566.34;4840236;29;20124;-78
2024/02/02 11:42:12;;;;;;;0.95;0.90;;;;;;;16.88;24.72;93556.84;4839726;29;20483;-79
2024/02/02 11:44:41;;;;;;;0.85;0.75;;;;;;;16.96;24.54;93556.13;4831959;29;20106;-81
2024/02/02 11:47:08;;;;;;;1.75;0.98;;;;;;;16.62;24.48;93548.66;4823449;29;20034;-81
2024/02/02 11:49:39;;;;;;;2.47;1.30;;;;;;;16.93;24.82;93540.06;4836268;29;20066;-80
2024/02/02 11:52:09;;;;;;;1.63;0.90;;;;;;;16.97;24.38;93538.38;4832143;29;20075;-81
2024/02/02 11:54:43;;;;;;;0.80;0.70;;;;;;;16.60;24.76;93540.25;4823389;29;20037;-80